createdAt,value
2022-09-27T00:00:26.089Z,1.05
2022-09-27T00:02:27.924Z,1.08
2022-09-27T00:04:29.754Z,0.90
2022-09-27T00:06:31.769Z,1.00
2022-09-27T00:08:33.785Z,1.00
2022-09-27T00:10:35.492Z,1.15
2022-09-27T00:12:37.217Z,1.00
2022-09-27T00:14:38.980Z,1.13
2022-09-27T00:16:42.004Z,1.00
2022-09-27T00:18:43.674Z,1.10
2022-09-27T00:20:45.448Z,0.90
2022-09-27T00:22:47.930Z,1.00
2022-09-27T00:24:49.814Z,1.10
2022-09-27T00:26:51.532Z,1.10
2022-09-27T00:28:53.471Z,1.00
2022-09-27T00:30:55.291Z,1.00
2022-09-27T00:32:57.002Z,0.80
2022-09-27T00:34:58.703Z,1.00
2022-09-27T00:37:00.354Z,1.10
2022-09-27T00:39:02.105Z,0.75
2022-09-27T00:41:03.817Z,0.80
2022-09-27T00:43:19.439Z,1.08
2022-09-27T00:45:21.204Z,1.00
2022-09-27T00:47:41.367Z,0.75
2022-09-27T00:49:55.343Z,1.00
2022-09-27T00:52:08.820Z,0.90
2022-09-27T00:54:11.203Z,0.90
2022-09-27T00:56:18.864Z,0.85
2022-09-27T00:58:23.127Z,1.08
2022-09-27T01:00:24.885Z,1.00
2022-09-27T01:02:26.651Z,1.00
2022-09-27T01:04:29.416Z,0.80
2022-09-27T01:06:31.213Z,0.80
2022-09-27T01:08:32.942Z,0.82
2022-09-27T01:10:37.367Z,1.00
2022-09-27T01:15:16.086Z,0.70
2022-09-27T01:17:58.811Z,0.95
2022-09-27T01:20:24.173Z,0.70
2022-09-27T01:22:32.282Z,0.80
2022-09-27T01:25:21.661Z,1.02
2022-09-27T01:27:23.347Z,0.80
2022-09-27T01:29:43.169Z,0.90
2022-09-27T01:31:52.465Z,1.00
2022-09-27T01:34:02.330Z,0.80
2022-09-27T01:36:28.544Z,0.90
2022-09-27T01:38:51.495Z,0.85
2022-09-27T01:41:36.428Z,1.00
2022-09-27T01:43:50.423Z,1.08
2022-09-27T01:45:54.950Z,1.07
2022-09-27T01:48:23.358Z,1.23
2022-09-27T01:50:29.520Z,1.20
2022-09-27T01:52:39.691Z,1.05
2022-09-27T01:54:46.425Z,1.10
2022-09-27T01:56:52.210Z,1.08
2022-09-27T01:59:05.186Z,1.15
2022-09-27T02:01:06.972Z,1.20
2022-09-27T02:03:16.795Z,1.30
2022-09-27T02:05:18.539Z,1.38
2022-09-27T02:07:23.941Z,1.10
2022-09-27T02:09:50.232Z,1.33
2022-09-27T02:11:56.365Z,1.50
2022-09-27T02:14:04.510Z,1.30
2022-09-27T02:16:34.980Z,1.70
2022-09-27T02:18:46.702Z,1.70
2022-09-27T02:20:53.969Z,1.80
2022-09-27T02:23:05.061Z,1.30
2022-09-27T02:25:23.936Z,1.58
2022-09-27T02:27:31.022Z,1.90
2022-09-27T02:29:36.018Z,1.70
2022-09-27T02:31:37.740Z,1.98
2022-09-27T02:33:51.046Z,1.85
2022-09-27T02:35:52.772Z,1.70
2022-09-27T02:37:55.044Z,2.10
2022-09-27T02:39:57.720Z,1.88
2022-09-27T02:41:59.529Z,1.88
2022-09-27T02:44:05.607Z,1.80
2022-09-27T02:46:30.943Z,2.05
2022-09-27T02:49:11.155Z,2.53
2022-09-27T02:51:18.721Z,2.00
2022-09-27T02:53:32.321Z,2.00
2022-09-27T02:56:02.867Z,2.10
2022-09-27T02:58:19.868Z,2.22
2022-09-27T03:00:23.607Z,2.10
2022-09-27T03:03:03.203Z,2.20
2022-09-27T03:05:13.498Z,2.22
2022-09-27T03:07:15.299Z,2.50
2022-09-27T03:09:28.832Z,2.10
2022-09-27T03:11:30.632Z,2.28
2022-09-27T03:13:32.361Z,2.15
2022-09-27T03:15:34.110Z,2.38
2022-09-27T03:17:35.868Z,2.10
2022-09-27T03:19:37.593Z,2.42
2022-09-27T03:21:39.303Z,2.20
2022-09-27T03:23:41.058Z,2.08
2022-09-27T03:25:42.792Z,2.38
2022-09-27T03:27:44.514Z,2.13
2022-09-27T03:29:46.252Z,2.42
2022-09-27T03:31:48.016Z,2.30
2022-09-27T03:33:49.857Z,2.50
2022-09-27T03:35:51.593Z,2.45
2022-09-27T03:37:53.457Z,2.47
2022-09-27T03:39:55.482Z,2.20
2022-09-27T03:41:57.441Z,2.17
2022-09-27T03:43:59.145Z,2.45
2022-09-27T03:46:00.943Z,2.65
2022-09-27T03:48:03.000Z,2.40
2022-09-27T03:50:05.292Z,2.50
2022-09-27T03:52:06.963Z,2.45
2022-09-27T03:54:08.815Z,2.45
2022-09-27T03:56:10.580Z,2.42
2022-09-27T03:58:12.360Z,2.00
2022-09-27T04:00:14.490Z,2.45
2022-09-27T04:02:16.317Z,2.10
2022-09-27T04:04:18.265Z,2.30
2022-09-27T04:06:20.097Z,2.50
2022-09-27T04:08:21.930Z,2.47
2022-09-27T04:10:23.716Z,2.40
2022-09-27T04:12:25.395Z,2.30
2022-09-27T04:14:27.209Z,2.65
2022-09-27T04:16:28.965Z,2.63
2022-09-27T04:18:30.675Z,2.30
2022-09-27T04:20:32.491Z,2.47
2022-09-27T04:22:34.209Z,2.28
2022-09-27T04:24:36.090Z,2.25
2022-09-27T04:26:38.406Z,2.30
2022-09-27T04:28:40.140Z,2.33
2022-09-27T04:30:42.023Z,1.98
2022-09-27T04:32:44.588Z,2.55
2022-09-27T04:34:46.410Z,2.30
2022-09-27T04:36:48.173Z,2.03
2022-09-27T04:38:49.937Z,2.67
2022-09-27T04:40:51.765Z,2.10
2022-09-27T04:42:53.586Z,2.03
2022-09-27T04:44:55.277Z,2.20
2022-09-27T04:46:57.141Z,1.90
2022-09-27T04:49:02.114Z,1.92
2022-09-27T04:51:03.980Z,2.10
2022-09-27T04:53:05.800Z,1.95
2022-09-27T04:55:08.665Z,2.00
2022-09-27T04:57:10.373Z,1.80
2022-09-27T04:59:12.128Z,2.03
2022-09-27T05:01:13.965Z,2.40
2022-09-27T05:03:15.762Z,2.20
2022-09-27T05:05:17.525Z,1.90
2022-09-27T05:07:19.340Z,1.98
2022-09-27T05:09:21.116Z,2.20
2022-09-27T05:11:22.818Z,1.70
2022-09-27T05:13:24.600Z,2.17
2022-09-27T05:15:26.338Z,2.00
2022-09-27T05:17:28.071Z,1.85
2022-09-27T05:19:29.752Z,2.17
2022-09-27T05:21:31.686Z,1.80
2022-09-27T05:23:33.500Z,1.75
2022-09-27T05:25:35.234Z,1.95
2022-09-27T05:27:36.965Z,1.90
2022-09-27T05:29:38.662Z,2.05
2022-09-27T05:31:40.441Z,1.80
2022-09-27T05:33:42.534Z,1.73
2022-09-27T05:35:45.683Z,1.77
2022-09-27T05:37:54.336Z,1.80
2022-09-27T05:39:56.050Z,1.60
2022-09-27T05:41:57.771Z,1.60
2022-09-27T05:43:59.852Z,2.20
2022-09-27T05:46:01.733Z,2.15
2022-09-27T05:48:03.585Z,1.65
2022-09-27T05:50:05.605Z,1.95
2022-09-27T05:52:08.240Z,1.58
2022-09-27T05:54:11.161Z,1.60
2022-09-27T05:56:12.956Z,2.10
2022-09-27T05:58:14.695Z,1.90
2022-09-27T06:00:16.494Z,1.52
2022-09-27T06:02:18.429Z,1.70
2022-09-27T06:04:20.894Z,1.50
2022-09-27T06:06:22.665Z,1.65
2022-09-27T06:08:24.353Z,1.80
2022-09-27T06:10:26.207Z,2.03
2022-09-27T06:12:28.045Z,1.70
2022-09-27T06:14:29.743Z,1.80
2022-09-27T06:16:31.583Z,1.75
2022-09-27T06:18:33.493Z,2.33
2022-09-27T06:20:35.242Z,2.25
2022-09-27T06:22:36.923Z,2.28
2022-09-27T06:24:38.656Z,2.00
2022-09-27T06:26:40.401Z,1.90
2022-09-27T06:28:42.142Z,2.28
2022-09-27T06:30:45.323Z,1.88
2022-09-27T06:32:47.078Z,1.95
2022-09-27T06:34:48.871Z,1.90
2022-09-27T06:36:51.557Z,2.00
2022-09-27T06:38:53.541Z,2.00
2022-09-27T06:40:55.306Z,1.83
2022-09-27T06:43:07.782Z,2.20
2022-09-27T06:45:10.196Z,2.13
2022-09-27T06:47:11.876Z,1.88
2022-09-27T06:49:13.659Z,2.17
2022-09-27T06:51:15.415Z,2.20
2022-09-27T06:53:17.263Z,2.50
2022-09-27T06:55:19.003Z,2.50
2022-09-27T06:57:20.768Z,2.40
2022-09-27T06:59:22.595Z,2.30
2022-09-27T07:01:30.623Z,2.28
2022-09-27T07:03:35.571Z,2.10
2022-09-27T07:05:39.894Z,2.97
2022-09-27T07:07:41.595Z,3.10
2022-09-27T07:09:43.271Z,2.63
2022-09-27T07:11:44.995Z,3.10
2022-09-27T07:13:46.720Z,4.07
2022-09-27T07:15:48.533Z,2.78
2022-09-27T07:17:57.058Z,2.97
2022-09-27T07:19:58.748Z,3.10
2022-09-27T07:22:00.458Z,3.25
2022-09-27T07:24:02.488Z,2.55
2022-09-27T07:26:04.806Z,3.28
2022-09-27T07:28:08.083Z,2.72
2022-09-27T07:30:10.876Z,2.88
2022-09-27T07:32:12.587Z,2.70
2022-09-27T07:34:14.260Z,2.97
2022-09-27T07:36:15.998Z,2.92
2022-09-27T07:38:17.811Z,2.92
2022-09-27T07:40:19.736Z,3.03
2022-09-27T07:42:21.523Z,2.60
2022-09-27T07:44:23.271Z,2.80
2022-09-27T07:46:24.999Z,3.20
2022-09-27T07:48:26.803Z,2.95
2022-09-27T07:50:28.562Z,3.10
2022-09-27T07:52:30.256Z,2.50
2022-09-27T07:54:32.007Z,2.92
2022-09-27T07:56:33.698Z,2.72
2022-09-27T07:58:35.416Z,2.75
2022-09-27T08:00:38.007Z,2.90
2022-09-27T08:02:39.779Z,3.10
2022-09-27T08:04:41.884Z,2.78
2022-09-27T08:06:43.597Z,2.75
2022-09-27T08:08:45.316Z,3.40
2022-09-27T08:10:47.006Z,2.80
2022-09-27T08:12:48.759Z,2.50
2022-09-27T08:14:50.509Z,2.38
2022-09-27T08:16:52.268Z,2.78
2022-09-27T08:18:53.988Z,2.88
2022-09-27T08:20:59.363Z,2.70
2022-09-27T08:23:01.188Z,2.83
2022-09-27T08:25:02.970Z,2.85
2022-09-27T08:27:08.174Z,2.90
2022-09-27T08:29:13.351Z,2.75
2022-09-27T08:31:15.205Z,3.10
2022-09-27T08:33:16.989Z,2.88
2022-09-27T08:35:18.689Z,2.55
2022-09-27T08:37:20.412Z,3.03
2022-09-27T08:39:22.774Z,3.15
2022-09-27T08:41:27.272Z,2.92
2022-09-27T08:43:28.888Z,3.35
2022-09-27T08:45:54.867Z,2.70
2022-09-27T08:48:01.498Z,2.97
2022-09-27T08:50:05.039Z,2.80
2022-09-27T08:52:08.334Z,2.80
2022-09-27T08:54:32.805Z,2.60
2022-09-27T08:56:34.525Z,3.00
2022-09-27T08:58:39.531Z,2.58
2022-09-27T09:00:41.362Z,2.58
2022-09-27T09:02:43.140Z,2.80
2022-09-27T09:04:44.869Z,2.60
2022-09-27T09:06:53.198Z,2.70
2022-09-27T09:08:59.128Z,2.85
2022-09-27T09:11:27.856Z,2.40
2022-09-27T09:13:49.354Z,2.40
2022-09-27T09:15:59.247Z,2.47
2022-09-27T09:18:23.825Z,2.55
2022-09-27T09:20:31.951Z,2.40
2022-09-27T09:23:01.375Z,2.22
2022-09-27T09:25:11.874Z,2.45
2022-09-27T09:27:22.397Z,2.60
2022-09-27T09:29:42.573Z,2.35
2022-09-27T09:32:01.226Z,2.40
2022-09-27T09:34:38.229Z,2.33
2022-09-27T09:37:02.967Z,2.50
2022-09-27T09:39:05.558Z,2.53
2022-09-27T09:41:31.414Z,2.45
2022-09-27T09:43:40.747Z,2.20
2022-09-27T09:45:47.215Z,2.63
2022-09-27T09:48:14.421Z,2.28
2022-09-27T09:50:30.670Z,2.40
2022-09-27T09:52:42.596Z,2.20
2022-09-27T09:55:08.304Z,2.65
2022-09-27T09:57:12.698Z,2.10
2022-09-27T10:01:20.713Z,2.33
2022-09-27T10:03:23.053Z,2.20
2022-09-27T10:05:26.040Z,2.15
2022-09-27T10:07:27.725Z,2.30
2022-09-27T10:09:29.416Z,2.50
2022-09-27T10:11:40.517Z,2.30
2022-09-27T10:13:42.241Z,2.10
2022-09-27T10:15:46.254Z,2.45
2022-09-27T10:17:52.999Z,2.30
2022-09-27T10:19:55.316Z,2.25
2022-09-27T10:22:17.114Z,2.03
2022-09-27T10:24:19.116Z,2.30
2022-09-27T10:26:21.219Z,2.40
2022-09-27T10:28:42.055Z,2.08
2022-09-27T10:30:43.832Z,2.10
2022-09-27T10:32:45.621Z,2.42
2022-09-27T10:34:47.350Z,1.92
2022-09-27T10:37:10.527Z,2.17
2022-09-27T10:39:21.945Z,2.17
2022-09-27T10:41:44.225Z,2.30
2022-09-27T10:43:45.952Z,2.40
2022-09-27T10:45:47.707Z,2.20
2022-09-27T10:47:49.457Z,2.25
2022-09-27T10:49:51.349Z,2.13
2022-09-27T10:51:55.002Z,1.75
2022-09-27T10:53:56.701Z,2.17
2022-09-27T10:55:58.539Z,1.88
2022-09-27T10:58:03.323Z,2.13
2022-09-27T11:00:28.645Z,1.88
2022-09-27T11:02:32.873Z,2.15
2022-09-27T11:04:36.466Z,2.25
2022-09-27T11:06:38.369Z,1.95
2022-09-27T11:08:40.190Z,2.35
2022-09-27T11:10:42.073Z,2.13
2022-09-27T11:12:43.833Z,2.03
2022-09-27T11:14:48.979Z,1.85
2022-09-27T11:16:59.327Z,2.17
2022-09-27T11:19:29.132Z,2.28
2022-09-27T11:22:07.586Z,1.98
2022-09-27T11:25:02.244Z,2.25
2022-09-27T11:27:33.549Z,2.45
2022-09-27T11:29:56.648Z,2.05
2022-09-27T11:32:16.970Z,1.95
2022-09-27T11:34:49.060Z,2.30
2022-09-27T11:37:07.956Z,2.00
2022-09-27T11:39:18.172Z,2.67
2022-09-27T11:41:26.016Z,2.22
2022-09-27T11:43:52.461Z,2.40
2022-09-27T11:46:20.707Z,2.22
2022-09-27T11:49:03.153Z,2.08
2022-09-27T11:51:37.986Z,2.40
2022-09-27T11:54:22.538Z,2.00
2022-09-27T11:56:30.019Z,2.28
2022-09-27T11:58:46.840Z,2.45
2022-09-27T12:00:51.515Z,2.20
2022-09-27T12:03:17.434Z,2.22
2022-09-27T12:05:32.958Z,2.20
2022-09-27T12:07:58.824Z,2.28
2022-09-27T12:10:04.245Z,2.28
2022-09-27T12:12:27.362Z,2.47
2022-09-27T12:14:36.401Z,2.13
2022-09-27T12:16:44.106Z,2.40
2022-09-27T12:18:57.348Z,2.15
2022-09-27T12:21:02.914Z,2.22
2022-09-27T12:23:11.510Z,2.25
2022-09-27T12:25:19.694Z,2.50
2022-09-27T12:27:36.069Z,2.10
2022-09-27T12:29:39.263Z,1.80
2022-09-27T12:31:47.281Z,2.45
2022-09-27T12:33:59.826Z,2.03
2022-09-27T12:36:04.814Z,2.13
2022-09-27T12:38:11.795Z,2.20
2022-09-27T12:40:27.214Z,1.98
2022-09-27T12:42:45.889Z,2.35
2022-09-27T12:44:50.508Z,1.75
2022-09-27T12:47:12.054Z,1.90
2022-09-27T12:49:18.575Z,2.15
2022-09-27T12:51:23.774Z,1.92
2022-09-27T12:53:31.499Z,2.25
2022-09-27T12:56:02.990Z,1.73
2022-09-27T12:58:22.851Z,2.03
2022-09-27T13:00:44.368Z,1.85
2022-09-27T13:03:15.304Z,2.33
2022-09-27T13:05:38.290Z,2.07
2022-09-27T13:07:59.998Z,2.13
2022-09-27T13:10:23.456Z,2.10
2022-09-27T13:12:28.371Z,2.22
2022-09-27T13:14:33.484Z,2.42
2022-09-27T13:16:44.712Z,1.70
2022-09-27T13:18:52.303Z,2.13
2022-09-27T13:20:54.037Z,1.90
2022-09-27T13:22:55.789Z,1.70
2022-09-27T13:24:57.877Z,1.67
2022-09-27T13:26:59.639Z,1.73
2022-09-27T13:29:01.683Z,2.00
2022-09-27T13:31:06.963Z,1.92
2022-09-27T13:33:11.724Z,1.73
2022-09-27T13:35:23.297Z,1.80
2022-09-27T13:37:48.493Z,1.98
2022-09-27T13:41:52.278Z,1.73
2022-09-27T13:44:26.485Z,1.70
2022-09-27T13:46:28.491Z,1.63
2022-09-27T13:48:45.726Z,1.77
2022-09-27T13:50:50.591Z,1.60
2022-09-27T13:53:02.481Z,1.55
2022-09-27T13:55:24.234Z,2.00
2022-09-27T13:57:53.814Z,1.70
2022-09-27T13:59:55.493Z,1.80
2022-09-27T14:02:27.485Z,1.52
2022-09-27T14:04:35.996Z,1.58
2022-09-27T14:06:42.440Z,1.23
2022-09-27T14:09:11.606Z,1.92
2022-09-27T14:11:48.905Z,1.50
2022-09-27T14:13:50.719Z,1.60
2022-09-27T14:15:52.862Z,1.50
2022-09-27T14:17:54.698Z,1.60
2022-09-27T14:19:56.501Z,1.42
2022-09-27T14:21:58.213Z,1.60
2022-09-27T14:24:22.550Z,1.95
2022-09-27T14:26:28.899Z,1.67
2022-09-27T14:28:31.704Z,1.33
2022-09-27T14:30:33.443Z,1.65
2022-09-27T14:32:35.164Z,1.75
2022-09-27T14:34:36.949Z,1.30
2022-09-27T14:36:38.829Z,1.65
2022-09-27T14:38:40.515Z,1.48
2022-09-27T14:40:44.441Z,1.50
2022-09-27T14:42:46.335Z,1.65
2022-09-27T14:44:48.761Z,1.23
2022-09-27T14:47:15.584Z,1.30
2022-09-27T14:49:24.457Z,1.60
2022-09-27T14:51:30.731Z,1.30
2022-09-27T14:53:34.498Z,1.40
2022-09-27T14:55:36.286Z,1.73
2022-09-27T14:57:37.940Z,1.67
2022-09-27T14:59:41.286Z,1.40
2022-09-27T15:01:50.363Z,1.40
2022-09-27T15:03:52.143Z,1.40
2022-09-27T15:05:54.044Z,1.55
2022-09-27T15:07:56.759Z,1.15
2022-09-27T15:09:58.493Z,1.30
2022-09-27T15:12:01.627Z,1.70
2022-09-27T15:14:03.340Z,1.42
2022-09-27T15:16:16.829Z,1.60
2022-09-27T15:18:47.392Z,1.45
2022-09-27T15:20:55.258Z,1.38
2022-09-27T15:22:58.255Z,1.30
2022-09-27T15:25:08.445Z,1.42
2022-09-27T15:27:22.096Z,1.48
2022-09-27T15:29:25.136Z,1.52
2022-09-27T15:31:36.923Z,1.42
2022-09-27T15:33:38.944Z,1.50
2022-09-27T15:35:40.895Z,1.25
2022-09-27T15:37:42.739Z,1.20
2022-09-27T15:39:44.713Z,1.40
2022-09-27T15:42:02.706Z,1.33
2022-09-27T15:44:12.106Z,1.75
2022-09-27T15:46:23.153Z,1.40
2022-09-27T15:48:25.530Z,1.60
2022-09-27T15:50:27.099Z,1.40
2022-09-27T15:52:40.695Z,1.38
2022-09-27T15:54:42.840Z,1.30
2022-09-27T15:56:44.611Z,1.70
2022-09-27T15:58:46.920Z,1.33
2022-09-27T16:00:59.370Z,1.58
2022-09-27T16:03:02.455Z,1.30
2022-09-27T16:05:04.932Z,1.27
2022-09-27T16:07:07.088Z,1.40
2022-09-27T16:09:17.368Z,1.23
2022-09-27T16:11:19.337Z,1.42
2022-09-27T16:13:21.722Z,1.40
2022-09-27T16:15:23.691Z,1.40
2022-09-27T16:17:25.444Z,1.65
2022-09-27T16:19:27.353Z,1.45
2022-09-27T16:21:29.055Z,1.45
2022-09-27T16:23:30.795Z,1.50
2022-09-27T16:25:32.555Z,1.60
2022-09-27T16:27:34.294Z,1.30
2022-09-27T16:29:36.028Z,1.40
2022-09-27T16:31:39.057Z,1.13
2022-09-27T16:33:41.121Z,1.67
2022-09-27T16:35:42.874Z,1.20
2022-09-27T16:37:45.603Z,1.58
2022-09-27T16:39:47.375Z,2.30
2022-09-27T16:41:49.315Z,1.60
2022-09-27T16:43:51.420Z,1.50
2022-09-27T16:45:53.268Z,1.52
2022-09-27T16:47:55.030Z,1.20
2022-09-27T16:49:56.877Z,1.60
2022-09-27T16:51:58.842Z,1.70
2022-09-27T16:54:02.263Z,1.60
2022-09-27T16:56:05.465Z,1.50
2022-09-27T16:58:07.134Z,1.42
2022-09-27T17:00:10.095Z,1.50
2022-09-27T17:02:11.934Z,2.05
2022-09-27T17:04:14.649Z,1.30
2022-09-27T17:06:18.026Z,1.40
2022-09-27T17:08:20.026Z,1.70
2022-09-27T17:10:22.576Z,1.27
2022-09-27T17:12:24.359Z,1.60
2022-09-27T17:14:26.326Z,1.48
2022-09-27T17:16:28.268Z,1.40
2022-09-27T17:18:30.150Z,1.60
2022-09-27T17:20:31.909Z,1.17
2022-09-27T17:22:33.763Z,1.30
2022-09-27T17:24:35.858Z,1.08
2022-09-27T17:26:38.167Z,1.50
2022-09-27T17:28:39.905Z,1.60
2022-09-27T17:30:42.265Z,1.50
2022-09-27T17:32:44.329Z,1.30
2022-09-27T17:34:46.309Z,1.30
2022-09-27T17:36:48.481Z,1.70
2022-09-27T17:38:51.553Z,1.60
2022-09-27T17:41:03.221Z,1.48
2022-09-27T17:43:05.727Z,1.33
2022-09-27T17:45:08.470Z,1.40
2022-09-27T17:47:10.227Z,1.63
2022-09-27T17:49:12.498Z,1.38
2022-09-27T17:51:14.366Z,1.02
2022-09-27T17:53:16.029Z,1.30
2022-09-27T17:55:19.866Z,1.40
2022-09-27T17:57:21.927Z,1.30
2022-09-27T17:59:23.924Z,1.40
2022-09-27T18:01:26.059Z,1.40
2022-09-27T18:03:28.003Z,1.42
2022-09-27T18:05:29.847Z,1.45
2022-09-27T18:07:32.942Z,1.48
2022-09-27T18:09:35.437Z,1.20
2022-09-27T18:11:40.115Z,1.45
2022-09-27T18:13:44.287Z,1.30
2022-09-27T18:15:57.609Z,1.50
2022-09-27T18:18:04.209Z,1.70
2022-09-27T18:20:10.204Z,1.70
2022-09-27T18:22:14.998Z,1.80
2022-09-27T18:24:17.940Z,2.80
2022-09-27T18:26:20.923Z,1.75
2022-09-27T18:28:29.557Z,1.63
2022-09-27T18:30:33.398Z,1.50
2022-09-27T18:32:35.257Z,3.53
2022-09-27T18:34:37.145Z,1.77
2022-09-27T18:36:39.096Z,1.95
2022-09-27T18:38:40.958Z,1.90
2022-09-27T18:40:56.205Z,1.92
2022-09-27T18:42:58.483Z,1.63
2022-09-27T18:45:00.211Z,1.40
2022-09-27T18:47:02.021Z,1.63
2022-09-27T18:49:05.088Z,2.35
2022-09-27T18:51:18.140Z,1.85
2022-09-27T18:53:19.968Z,1.70
2022-09-27T18:55:25.248Z,2.90
2022-09-27T18:57:27.325Z,2.25
2022-09-27T18:59:29.270Z,1.80
2022-09-27T19:01:31.291Z,2.03
2022-09-27T19:03:33.913Z,1.90
2022-09-27T19:05:35.709Z,2.92
2022-09-27T19:07:37.389Z,1.73
2022-09-27T19:09:39.301Z,2.78
2022-09-27T19:11:41.085Z,1.65
2022-09-27T19:13:51.007Z,1.65
2022-09-27T19:15:57.054Z,1.90
2022-09-27T19:17:58.916Z,1.70
2022-09-27T19:20:00.726Z,1.52
2022-09-27T19:22:02.553Z,2.03
2022-09-27T19:24:04.469Z,1.85
2022-09-27T19:26:07.129Z,1.75
2022-09-27T19:28:08.823Z,1.80
2022-09-27T19:30:11.227Z,2.05
2022-09-27T19:32:13.359Z,1.70
2022-09-27T19:34:15.299Z,1.80
2022-09-27T19:36:18.070Z,1.90
2022-09-27T19:38:19.964Z,2.25
2022-09-27T19:40:21.779Z,1.98
2022-09-27T19:42:23.691Z,2.30
2022-09-27T19:44:25.624Z,1.60
2022-09-27T19:46:27.443Z,1.92
2022-09-27T19:48:29.287Z,1.92
2022-09-27T19:50:31.395Z,1.95
2022-09-27T19:52:33.381Z,1.88
2022-09-27T19:54:35.178Z,1.88
2022-09-27T19:56:36.962Z,1.80
2022-09-27T19:58:39.153Z,2.17
2022-09-27T20:00:41.022Z,2.00
2022-09-27T20:02:42.895Z,1.92
2022-09-27T20:04:44.783Z,1.80
2022-09-27T20:06:46.924Z,1.98
2022-09-27T20:08:48.939Z,2.17
2022-09-27T20:11:13.056Z,2.20
2022-09-27T20:13:14.747Z,2.03
2022-09-27T20:15:16.644Z,1.85
2022-09-27T20:17:18.412Z,1.75
2022-09-27T20:19:20.191Z,1.85
2022-09-27T20:21:23.226Z,1.70
2022-09-27T20:23:24.979Z,1.92
2022-09-27T20:25:26.979Z,1.75
2022-09-27T20:27:28.754Z,2.00
2022-09-27T20:29:30.481Z,2.20
2022-09-27T20:31:34.381Z,2.28
2022-09-27T20:33:36.389Z,1.92
2022-09-27T20:35:38.246Z,1.95
2022-09-27T20:37:39.865Z,2.25
2022-09-27T20:39:41.557Z,1.80
2022-09-27T20:41:44.697Z,1.95
2022-09-27T20:43:46.821Z,2.22
2022-09-27T20:45:48.514Z,2.20
2022-09-27T20:47:50.180Z,1.98
2022-09-27T20:49:52.032Z,2.00
2022-09-27T20:51:53.776Z,1.90
2022-09-27T20:53:55.656Z,2.30
2022-09-27T20:55:58.069Z,2.00
2022-09-27T20:57:59.877Z,2.30
2022-09-27T21:00:01.856Z,1.90
2022-09-27T21:02:03.650Z,2.50
2022-09-27T21:04:05.453Z,2.00
2022-09-27T21:06:07.472Z,1.92
2022-09-27T21:08:09.158Z,1.80
2022-09-27T21:10:10.889Z,1.90
2022-09-27T21:12:12.631Z,2.20
2022-09-27T21:14:14.305Z,1.98
2022-09-27T21:16:20.953Z,2.10
2022-09-27T21:18:22.732Z,2.00
2022-09-27T21:20:24.494Z,2.28
2022-09-27T21:22:26.203Z,2.17
2022-09-27T21:24:27.930Z,1.80
2022-09-27T21:26:30.952Z,2.10
2022-09-27T21:28:39.820Z,2.10
2022-09-27T21:30:41.486Z,1.92
2022-09-27T21:32:43.182Z,2.35
2022-09-27T21:34:44.869Z,2.00
2022-09-27T21:36:46.545Z,1.73
2022-09-27T21:38:48.217Z,2.20
2022-09-27T21:41:08.546Z,2.45
2022-09-27T21:43:10.409Z,2.08
2022-09-27T21:45:12.068Z,1.90
2022-09-27T21:47:13.768Z,2.28
2022-09-27T21:49:15.510Z,1.80
2022-09-27T21:51:19.565Z,1.85
2022-09-27T21:53:21.390Z,1.60
2022-09-27T21:55:23.123Z,2.03
2022-09-27T21:57:24.758Z,2.05
2022-09-27T21:59:26.430Z,1.90
2022-09-27T22:01:29.737Z,1.92
2022-09-27T22:03:34.658Z,1.80
2022-09-27T22:05:43.085Z,1.98
2022-09-27T22:07:44.781Z,1.83
2022-09-27T22:09:46.486Z,1.90
2022-09-27T22:11:48.431Z,1.70
2022-09-27T22:13:50.269Z,1.70
2022-09-27T22:15:52.012Z,1.65
2022-09-27T22:17:53.802Z,1.80
2022-09-27T22:19:55.509Z,2.00
2022-09-27T22:21:57.222Z,2.38
2022-09-27T22:24:04.029Z,1.70
2022-09-27T22:26:15.566Z,1.75
2022-09-27T22:28:17.289Z,1.30
2022-09-27T22:30:19.014Z,2.83
2022-09-27T22:32:20.709Z,1.63
2022-09-27T22:34:22.429Z,1.50
2022-09-27T22:36:24.373Z,1.60
2022-09-27T22:38:26.235Z,1.50
2022-09-27T22:40:27.986Z,1.60
2022-09-27T22:42:29.833Z,1.33
2022-09-27T22:44:31.563Z,1.67
2022-09-27T22:46:33.373Z,1.88
2022-09-27T22:48:35.407Z,1.55
2022-09-27T22:50:37.083Z,1.50
2022-09-27T22:52:38.902Z,1.50
2022-09-27T22:54:40.573Z,1.40
2022-09-27T22:56:42.275Z,1.38
2022-09-27T22:58:44.212Z,1.58
2022-09-27T23:00:45.983Z,1.50
2022-09-27T23:02:47.833Z,1.35
2022-09-27T23:04:49.563Z,1.30
2022-09-27T23:06:51.324Z,1.40
2022-09-27T23:08:53.110Z,1.40
2022-09-27T23:11:02.145Z,1.40
2022-09-27T23:13:03.817Z,1.35
2022-09-27T23:15:06.043Z,1.45
2022-09-27T23:17:07.761Z,1.30
2022-09-27T23:19:09.548Z,1.35
2022-09-27T23:21:12.377Z,1.40
2022-09-27T23:23:14.113Z,1.17
2022-09-27T23:25:16.052Z,1.42
2022-09-27T23:27:17.778Z,1.30
2022-09-27T23:29:19.441Z,1.40
2022-09-27T23:31:21.307Z,1.27
2022-09-27T23:33:23.068Z,1.20
2022-09-27T23:35:24.900Z,1.40
2022-09-27T23:37:26.588Z,1.45
2022-09-27T23:39:28.284Z,1.30
2022-09-27T23:41:29.985Z,1.40
2022-09-27T23:43:31.686Z,1.33
2022-09-27T23:45:33.425Z,1.10
2022-09-27T23:47:35.232Z,1.40
2022-09-27T23:49:36.956Z,1.88
2022-09-27T23:51:38.757Z,1.50
2022-09-27T23:53:40.528Z,1.27
2022-09-27T23:55:42.232Z,1.30
2022-09-27T23:57:43.916Z,1.17
2022-09-27T23:59:45.608Z,1.27
